Marv Dasht, Iran
Current Conditions -  °F | °C
As of 12:00 AM on Wednesday 22 Oct 2014 (Local Time) from OISS Reporting Station
Few Clouds Few Clouds  
Wind Chill: 64°   Ceiling: Unl
Heat Index: 64°   Visibility: 6mi
Dew Point: 45°   Wind: 5mph
Humidity: 49%   Direction: 180°S
Pressure: 30.15"   Gusts: NA
Location:  29.8°N, 52.83°E
Report Text: OISS 212000Z 18004KT 9999 FEW040 18/07 Q1021 A3017
Loading
Personal Weather Stations






























Interactive Weather Map
Tropical Storm Tracking
New forecast layout! Learn more

10-Day Weather Forecast

Advertisements
Track Severe Weather on mobile